Otterbein, Indiana
Current Conditions -  °F | °C
As of 5:04 PM on Sunday 23 Nov 2014 (Local Time) from KLAF Reporting Station
Light Rain Light Rain  
Wind Chill: 50°   Ceiling: 900
Heat Index: 50°   Visibility: 4mi
Dew Point: 50°   Wind: 7mph
Humidity: 100%   Direction: 110°ESE
Pressure: 29.46"   Gusts: NA
Location:  40.49°N, 87.1°W
Report Text: KLAF 232204Z 11006KT 4SM -RA BR BKN009 BKN013 OVC025 10/10 A2946 RMK AO2 PRESFR P0001 T01000100
Loading
Personal Weather Stations






























Interactive Weather Map New forecast layout! Learn more

10-Day Weather Forecast

Advertisements
Track Severe Weather on mobile